createdAt,value
2022-10-12T00:01:02.904Z,100.00
2022-10-12T00:03:31.126Z,100.00
2022-10-12T00:06:05.415Z,100.00
2022-10-12T00:08:34.614Z,100.00
2022-10-12T00:11:03.045Z,100.00
2022-10-12T00:13:32.890Z,100.00
2022-10-12T00:16:04.524Z,100.00
2022-10-12T00:18:33.078Z,100.00
2022-10-12T00:21:05.718Z,100.00
2022-10-12T00:23:35.406Z,100.00
2022-10-12T00:26:06.615Z,100.00
2022-10-12T00:28:37.368Z,100.00
2022-10-12T00:31:09.806Z,100.00
2022-10-12T00:33:39.088Z,100.00
2022-10-12T00:36:19.455Z,100.00
2022-10-12T00:38:48.752Z,100.00
2022-10-12T00:41:20.105Z,100.00
2022-10-12T00:43:55.424Z,100.00
2022-10-12T00:46:34.672Z,100.00
2022-10-12T00:49:11.555Z,100.00
2022-10-12T00:51:41.310Z,100.00
2022-10-12T00:54:14.286Z,100.00
2022-10-12T00:56:46.099Z,100.00
2022-10-12T00:59:23.892Z,100.00
2022-10-12T01:01:52.166Z,100.00
2022-10-12T01:04:20.603Z,100.00
2022-10-12T01:06:48.862Z,100.00
2022-10-12T01:09:17.570Z,100.00
2022-10-12T01:11:45.749Z,100.00
2022-10-12T01:14:15.560Z,100.00
2022-10-12T01:16:53.586Z,100.00
2022-10-12T01:20:12.669Z,100.00
2022-10-12T01:22:48.419Z,100.00
2022-10-12T01:25:34.737Z,100.00
2022-10-12T01:28:14.891Z,100.00
2022-10-12T01:30:49.890Z,100.00
2022-10-12T01:33:29.683Z,100.00
2022-10-12T01:36:08.000Z,100.00
2022-10-12T01:38:49.292Z,100.00
2022-10-12T01:41:22.002Z,100.00
2022-10-12T01:43:53.108Z,100.00
2022-10-12T01:46:46.116Z,100.00
2022-10-12T01:49:18.395Z,100.00
2022-10-12T01:52:20.396Z,100.00
2022-10-12T01:55:25.899Z,100.00
2022-10-12T01:58:19.217Z,100.00
2022-10-12T02:01:00.432Z,100.00
2022-10-12T02:03:38.780Z,100.00
2022-10-12T02:06:11.101Z,100.00
2022-10-12T02:08:47.738Z,100.00
2022-10-12T02:11:19.674Z,100.00
2022-10-12T02:13:53.851Z,100.00
2022-10-12T02:16:27.011Z,100.00
2022-10-12T02:18:58.867Z,100.00
2022-10-12T02:21:32.841Z,100.00
2022-10-12T02:24:05.464Z,100.00
2022-10-12T02:26:36.762Z,100.00
2022-10-12T02:29:14.765Z,100.00
2022-10-12T02:31:53.308Z,100.00
2022-10-12T02:34:26.866Z,100.00
2022-10-12T02:37:05.825Z,100.00
2022-10-12T02:39:40.679Z,100.00
2022-10-12T02:42:13.605Z,100.00
2022-10-12T02:44:44.138Z,100.00
2022-10-12T02:47:14.193Z,100.00
2022-10-12T02:49:46.020Z,100.00
2022-10-12T02:52:14.317Z,100.00
2022-10-12T02:54:42.689Z,100.00
2022-10-12T02:57:10.989Z,100.00
2022-10-12T02:59:39.294Z,100.00
2022-10-12T03:02:08.897Z,100.00
2022-10-12T03:04:37.303Z,100.00
2022-10-12T03:07:06.983Z,100.00
2022-10-12T03:09:35.269Z,100.00
2022-10-12T03:12:03.547Z,100.00
2022-10-12T03:14:33.184Z,100.00
2022-10-12T03:17:01.789Z,100.00
2022-10-12T03:19:30.059Z,100.00
2022-10-12T03:21:58.311Z,100.00
2022-10-12T03:24:27.964Z,100.00
2022-10-12T03:26:56.186Z,100.00
2022-10-12T03:29:24.451Z,100.00
2022-10-12T03:31:52.708Z,100.00
2022-10-12T03:34:20.998Z,100.00
2022-10-12T03:36:49.259Z,100.00
2022-10-12T03:39:17.534Z,100.00
2022-10-12T03:41:47.148Z,100.00
2022-10-12T03:44:15.396Z,100.00
2022-10-12T03:46:43.697Z,100.00
2022-10-12T03:49:11.971Z,100.00
2022-10-12T03:51:40.208Z,100.00
2022-10-12T03:54:08.449Z,100.00
2022-10-12T03:56:36.713Z,100.00
2022-10-12T03:59:06.802Z,100.00
2022-10-12T04:01:35.158Z,100.00
2022-10-12T04:04:03.493Z,100.00
2022-10-12T04:06:31.735Z,100.00
2022-10-12T04:09:00.016Z,100.00
2022-10-12T04:11:28.680Z,100.00
2022-10-12T04:13:56.911Z,100.00
2022-10-12T04:16:28.833Z,100.00
2022-10-12T04:18:59.346Z,100.00
2022-10-12T04:21:30.142Z,100.00
2022-10-12T04:23:58.471Z,100.00
2022-10-12T04:26:26.739Z,100.00
2022-10-12T04:28:55.017Z,100.00
2022-10-12T04:31:23.362Z,100.00
2022-10-12T04:33:56.909Z,100.00
2022-10-12T04:36:25.634Z,100.00
2022-10-12T04:38:58.390Z,100.00
2022-10-12T04:41:29.438Z,100.00
2022-10-12T04:43:57.734Z,100.00
2022-10-12T04:46:26.070Z,100.00
2022-10-12T04:48:55.737Z,100.00
2022-10-12T04:51:24.816Z,100.00
2022-10-12T04:53:53.129Z,100.00
2022-10-12T04:56:21.400Z,100.00
2022-10-12T04:58:49.709Z,100.00
2022-10-12T05:01:18.007Z,100.00
2022-10-12T05:03:46.418Z,100.00
2022-10-12T05:06:16.103Z,100.00
2022-10-12T05:08:44.394Z,100.00
2022-10-12T05:11:12.779Z,100.00
2022-10-12T05:13:41.068Z,100.00
2022-10-12T05:16:09.410Z,100.00
2022-10-12T05:18:37.662Z,100.00
2022-10-12T05:21:06.209Z,100.00
2022-10-12T05:23:35.823Z,100.00
2022-10-12T05:26:04.423Z,100.00
2022-10-12T05:28:37.011Z,100.00
2022-10-12T05:31:08.263Z,100.00
2022-10-12T05:33:36.565Z,100.00
2022-10-12T05:36:05.434Z,100.00
2022-10-12T05:38:35.073Z,100.00
2022-10-12T05:41:03.357Z,100.00
2022-10-12T05:43:31.633Z,100.00
2022-10-12T05:45:59.883Z,100.00
2022-10-12T05:48:28.114Z,100.00
2022-10-12T05:50:56.736Z,100.00
2022-10-12T05:53:25.727Z,100.00
2022-10-12T05:55:57.186Z,100.00
2022-10-12T05:58:26.354Z,100.00
2022-10-12T06:00:55.344Z,100.00
2022-10-12T06:03:26.188Z,100.00
2022-10-12T06:05:56.824Z,100.00
2022-10-12T06:08:25.079Z,100.00
2022-10-12T06:10:54.954Z,100.00
2022-10-12T06:13:23.736Z,100.00
2022-10-12T06:15:52.402Z,100.00
2022-10-12T06:18:21.423Z,100.00
2022-10-12T06:20:56.517Z,100.00
2022-10-12T06:23:37.284Z,100.00
2022-10-12T06:26:07.290Z,100.00
2022-10-12T06:28:35.622Z,100.00
2022-10-12T06:31:03.927Z,100.00
2022-10-12T06:33:32.165Z,100.00
2022-10-12T06:36:00.417Z,100.00
2022-10-12T06:38:54.039Z,100.00
2022-10-12T06:41:23.684Z,100.00
2022-10-12T06:43:51.944Z,100.00
2022-10-12T06:46:20.210Z,100.00
2022-10-12T06:48:48.517Z,100.00
2022-10-12T06:51:16.784Z,100.00
2022-10-12T06:53:45.044Z,100.00
2022-10-12T06:56:13.798Z,100.00
2022-10-12T06:58:43.422Z,100.00
2022-10-12T07:01:11.753Z,100.00
2022-10-12T07:03:40.213Z,100.00
2022-10-12T07:06:11.580Z,100.00
2022-10-12T07:08:41.168Z,100.00
2022-10-12T07:11:15.082Z,100.00
2022-10-12T07:13:44.629Z,100.00
2022-10-12T07:16:12.917Z,100.00
2022-10-12T07:18:41.168Z,100.00
2022-10-12T07:21:09.532Z,100.00
2022-10-12T07:23:42.523Z,100.00
2022-10-12T07:26:14.076Z,100.00
2022-10-12T07:28:42.360Z,100.00
2022-10-12T07:31:12.257Z,100.00
2022-10-12T07:33:40.552Z,100.00
2022-10-12T07:36:14.423Z,100.00
2022-10-12T07:38:45.772Z,100.00
2022-10-12T07:41:14.673Z,100.00
2022-10-12T07:43:43.528Z,100.00
2022-10-12T07:46:13.533Z,100.00
2022-10-12T07:48:45.914Z,100.00
2022-10-12T07:51:15.796Z,100.00
2022-10-12T07:53:44.095Z,100.00
2022-10-12T07:56:15.935Z,100.00
2022-10-12T07:58:44.945Z,100.00
2022-10-12T08:01:14.601Z,100.00
2022-10-12T08:03:49.086Z,100.00
2022-10-12T08:06:21.283Z,100.00
2022-10-12T08:08:50.472Z,100.00
2022-10-12T08:11:20.336Z,100.00
2022-10-12T08:13:49.328Z,100.00
2022-10-12T08:16:21.805Z,100.00
2022-10-12T08:18:50.339Z,100.00
2022-10-12T08:21:19.137Z,100.00
2022-10-12T08:23:47.693Z,100.00
2022-10-12T08:26:16.911Z,100.00
2022-10-12T08:28:45.377Z,100.00
2022-10-12T08:31:16.495Z,100.00
2022-10-12T08:33:46.230Z,100.00
2022-10-12T08:36:15.133Z,100.00
2022-10-12T08:38:44.389Z,100.00
2022-10-12T08:41:41.046Z,100.00
2022-10-12T08:44:52.346Z,100.00
2022-10-12T08:47:28.520Z,100.00
2022-10-12T08:50:00.280Z,100.00
2022-10-12T08:52:59.253Z,100.00
2022-10-12T08:55:37.239Z,100.00
2022-10-12T08:58:12.196Z,100.00
2022-10-12T09:00:40.557Z,100.00
2022-10-12T09:03:20.197Z,100.00
2022-10-12T09:05:56.571Z,100.00
2022-10-12T09:08:35.528Z,100.00
2022-10-12T09:11:21.892Z,100.00
2022-10-12T09:14:04.662Z,100.00
2022-10-12T09:16:37.394Z,100.00
2022-10-12T09:19:14.740Z,100.00
2022-10-12T09:21:46.042Z,100.00
2022-10-12T09:24:20.440Z,100.00
2022-10-12T09:26:53.908Z,100.00
2022-10-12T09:29:26.688Z,100.00
2022-10-12T09:32:29.434Z,100.00
2022-10-12T09:34:58.006Z,100.00
2022-10-12T09:37:31.757Z,100.00
2022-10-12T09:40:00.558Z,100.00
2022-10-12T09:42:28.851Z,100.00
2022-10-12T09:45:05.171Z,100.00
2022-10-12T09:47:34.753Z,100.00
2022-10-12T09:50:06.827Z,100.00
2022-10-12T09:52:44.494Z,100.00
2022-10-12T09:58:02.689Z,100.00
2022-10-12T10:00:33.915Z,100.00
2022-10-12T10:03:04.164Z,100.00
2022-10-12T10:05:34.891Z,100.00
2022-10-12T10:08:20.960Z,100.00
2022-10-12T10:10:51.966Z,100.00
2022-10-12T10:13:22.006Z,100.00
2022-10-12T10:15:53.461Z,100.00
2022-10-12T10:18:35.254Z,100.00
2022-10-12T10:21:06.483Z,100.00
2022-10-12T10:23:44.317Z,100.00
2022-10-12T10:26:19.395Z,100.00
2022-10-12T10:28:49.565Z,100.00
2022-10-12T10:31:23.163Z,98.00
2022-10-12T10:34:13.028Z,98.98
2022-10-12T10:36:46.638Z,98.15
2022-10-12T10:39:22.404Z,100.00
2022-10-12T10:41:51.841Z,99.89
2022-10-12T10:44:30.893Z,98.64
2022-10-12T10:47:03.699Z,99.81
2022-10-12T10:49:41.560Z,99.26
2022-10-12T10:52:24.564Z,97.75
2022-10-12T10:55:18.723Z,96.77
2022-10-12T10:57:58.071Z,97.32
2022-10-12T11:00:38.396Z,97.22
2022-10-12T11:03:14.796Z,97.20
2022-10-12T11:05:48.266Z,97.16
2022-10-12T11:08:23.316Z,95.37
2022-10-12T11:11:00.408Z,95.27
2022-10-12T11:13:35.547Z,94.88
2022-10-12T11:16:12.251Z,94.85
2022-10-12T11:18:46.398Z,96.13
2022-10-12T11:21:21.359Z,96.84
2022-10-12T11:23:54.425Z,95.92
2022-10-12T11:26:30.652Z,95.26
2022-10-12T11:29:01.302Z,94.61
2022-10-12T11:31:35.188Z,93.00
2022-10-12T11:34:12.631Z,94.66
2022-10-12T11:37:07.529Z,94.52
2022-10-12T11:39:38.125Z,92.27
2022-10-12T11:42:22.152Z,92.66
2022-10-12T11:44:51.806Z,92.71
2022-10-12T11:47:33.082Z,92.19
2022-10-12T11:50:05.210Z,91.98
2022-10-12T11:52:46.685Z,93.06
2022-10-12T11:55:48.081Z,93.93
2022-10-12T11:58:36.352Z,91.34
2022-10-12T12:01:44.928Z,93.37
2022-10-12T12:04:43.355Z,92.46
2022-10-12T12:07:44.279Z,93.05
2022-10-12T12:11:06.367Z,93.52
2022-10-12T12:13:36.028Z,93.77
2022-10-12T12:16:34.558Z,92.87
2022-10-12T12:19:33.845Z,91.48
2022-10-12T12:22:33.207Z,92.26
2022-10-12T12:25:35.435Z,91.75
2022-10-12T12:28:20.749Z,91.89
2022-10-12T12:31:01.571Z,92.29
2022-10-12T12:33:32.953Z,88.84
2022-10-12T12:36:04.293Z,87.15
2022-10-12T12:38:34.613Z,87.73
2022-10-12T12:41:08.517Z,88.46
2022-10-12T12:43:52.333Z,88.56
2022-10-12T12:46:22.186Z,87.61
2022-10-12T12:49:05.244Z,87.04
2022-10-12T12:51:43.863Z,84.68
2022-10-12T12:54:23.272Z,84.29
2022-10-12T12:57:28.407Z,83.68
2022-10-12T13:00:16.506Z,84.88
2022-10-12T13:03:49.844Z,83.60
2022-10-12T13:07:24.195Z,83.44
2022-10-12T13:10:20.503Z,83.81
2022-10-12T13:13:07.165Z,84.33
2022-10-12T13:15:59.442Z,83.55
2022-10-12T13:18:52.726Z,82.51
2022-10-12T13:21:24.768Z,82.39
2022-10-12T13:24:03.328Z,82.57
2022-10-12T13:26:33.251Z,83.29
2022-10-12T13:29:03.920Z,82.58
2022-10-12T13:31:39.216Z,83.49
2022-10-12T13:34:17.950Z,82.13
2022-10-12T13:36:55.459Z,81.62
2022-10-12T13:39:24.099Z,83.20
2022-10-12T13:41:56.112Z,82.56
2022-10-12T13:44:27.525Z,81.39
2022-10-12T13:46:59.220Z,81.18
2022-10-12T13:49:32.408Z,80.36
2022-10-12T13:52:03.112Z,81.97
2022-10-12T13:54:39.800Z,81.05
2022-10-12T13:57:19.720Z,79.76
2022-10-12T13:59:52.551Z,80.06
2022-10-12T14:02:26.176Z,78.38
2022-10-12T14:04:57.766Z,78.04
2022-10-12T14:07:30.890Z,76.71
2022-10-12T14:10:05.421Z,75.19
2022-10-12T14:12:35.792Z,73.46
2022-10-12T14:15:06.929Z,72.16
2022-10-12T14:17:35.178Z,71.88
2022-10-12T14:20:19.851Z,71.20
2022-10-12T14:22:50.082Z,71.00
2022-10-12T14:25:21.908Z,71.08
2022-10-12T14:27:57.132Z,71.29
2022-10-12T14:30:29.771Z,70.37
2022-10-12T14:33:12.995Z,69.95
2022-10-12T14:35:46.708Z,70.92
2022-10-12T14:38:39.784Z,70.25
2022-10-12T14:41:35.352Z,69.53
2022-10-12T14:44:12.159Z,68.63
2022-10-12T14:46:43.166Z,68.65
2022-10-12T14:49:18.455Z,69.22
2022-10-12T14:51:49.749Z,70.02
2022-10-12T14:54:18.064Z,70.64
2022-10-12T14:56:46.423Z,71.95
2022-10-12T14:59:14.757Z,72.50
2022-10-12T15:01:46.309Z,72.13
2022-10-12T15:04:18.591Z,72.96
2022-10-12T15:06:50.853Z,72.59
2022-10-12T15:09:19.591Z,71.74
2022-10-12T15:11:47.842Z,71.34
2022-10-12T15:14:16.153Z,70.17
2022-10-12T15:16:44.396Z,68.67
2022-10-12T15:19:12.664Z,68.89
2022-10-12T15:21:42.056Z,69.04
2022-10-12T15:24:16.318Z,68.38
2022-10-12T15:26:44.551Z,67.96
2022-10-12T15:29:12.833Z,68.36
2022-10-12T15:31:41.087Z,68.90
2022-10-12T15:34:13.447Z,69.80
2022-10-12T15:36:42.090Z,70.84
2022-10-12T15:39:10.801Z,72.54
2022-10-12T15:41:40.387Z,73.76
2022-10-12T15:44:10.997Z,74.85
2022-10-12T15:46:39.473Z,76.09
2022-10-12T15:49:08.295Z,77.63
2022-10-12T15:51:41.463Z,79.07
2022-10-12T15:54:10.808Z,79.41
2022-10-12T15:56:40.672Z,79.70
2022-10-12T15:59:08.963Z,79.74
2022-10-12T16:01:38.586Z,81.15
2022-10-12T16:04:08.006Z,82.19
2022-10-12T16:06:36.649Z,82.77
2022-10-12T16:09:04.994Z,83.89
2022-10-12T16:11:33.213Z,84.18
2022-10-12T16:14:02.923Z,85.30
2022-10-12T16:16:32.276Z,85.83
2022-10-12T16:19:00.656Z,86.29
2022-10-12T16:21:28.946Z,85.68
2022-10-12T16:23:57.277Z,86.91
2022-10-12T16:26:27.268Z,86.39
2022-10-12T16:28:55.581Z,87.17
2022-10-12T16:31:25.303Z,86.81
2022-10-12T16:33:53.564Z,87.27
2022-10-12T16:36:21.851Z,87.31
2022-10-12T16:38:50.121Z,86.94
2022-10-12T16:41:18.759Z,86.95
2022-10-12T16:43:47.080Z,85.76
2022-10-12T16:46:15.369Z,85.80
2022-10-12T16:48:45.128Z,85.31
2022-10-12T16:51:14.495Z,85.38
2022-10-12T16:53:43.936Z,85.69
2022-10-12T16:56:12.307Z,86.01
2022-10-12T16:58:40.557Z,85.43
2022-10-12T17:01:11.190Z,86.44
2022-10-12T17:03:39.523Z,86.61
2022-10-12T17:06:10.695Z,88.05
2022-10-12T17:08:39.875Z,88.63
2022-10-12T17:11:09.424Z,88.65
2022-10-12T17:13:38.861Z,88.75
2022-10-12T17:16:34.828Z,89.34
2022-10-12T17:19:03.656Z,90.98
2022-10-12T17:21:33.482Z,91.26
2022-10-12T17:24:02.631Z,91.86
2022-10-12T17:26:31.512Z,93.42
2022-10-12T17:28:59.781Z,93.42
2022-10-12T17:31:28.703Z,93.64
2022-10-12T17:33:58.214Z,94.34
2022-10-12T17:36:28.380Z,93.79
2022-10-12T17:39:00.239Z,92.36
2022-10-12T17:41:30.037Z,91.93
2022-10-12T17:43:58.955Z,91.45
2022-10-12T17:46:28.087Z,91.49
2022-10-12T17:48:57.545Z,90.61
2022-10-12T17:51:25.929Z,90.36
2022-10-12T17:53:54.465Z,89.92
2022-10-12T17:56:24.203Z,89.88
2022-10-12T17:58:55.867Z,89.95
2022-10-12T18:01:25.099Z,90.40
2022-10-12T18:04:06.432Z,89.79
2022-10-12T18:06:35.429Z,89.80
2022-10-12T18:09:05.746Z,90.02
2022-10-12T18:11:36.727Z,90.09
2022-10-12T18:14:05.051Z,90.40
2022-10-12T18:16:35.392Z,90.53
2022-10-12T18:19:05.282Z,91.04
2022-10-12T18:21:34.795Z,91.03
2022-10-12T18:24:05.326Z,91.26
2022-10-12T18:26:35.028Z,91.48
2022-10-12T18:29:05.172Z,91.36
2022-10-12T18:31:33.376Z,91.85
2022-10-12T18:34:02.719Z,91.44
2022-10-12T18:36:30.965Z,91.94
2022-10-12T18:39:02.320Z,92.50
2022-10-12T18:41:31.271Z,92.50
2022-10-12T18:44:02.626Z,92.42
2022-10-12T18:46:33.923Z,92.46
2022-10-12T18:49:05.266Z,92.53
2022-10-12T18:51:35.582Z,93.35
2022-10-12T18:54:05.933Z,93.29
2022-10-12T18:56:37.179Z,93.26
2022-10-12T18:59:07.915Z,93.37
2022-10-12T19:01:36.470Z,93.08
2022-10-12T19:04:06.753Z,93.40
2022-10-12T19:06:37.501Z,93.47
2022-10-12T19:09:06.851Z,93.41
2022-10-12T19:11:36.803Z,93.92
2022-10-12T19:14:09.050Z,94.24
2022-10-12T19:16:37.469Z,94.38
2022-10-12T19:19:08.666Z,94.24
2022-10-12T19:21:36.917Z,94.57
2022-10-12T19:24:10.518Z,94.24
2022-10-12T19:26:38.820Z,93.68
2022-10-12T19:29:08.579Z,94.23
2022-10-12T19:31:39.249Z,93.80
2022-10-12T19:34:11.008Z,94.16
2022-10-12T19:36:40.272Z,94.65
2022-10-12T19:39:10.868Z,95.70
2022-10-12T19:41:39.627Z,96.43
2022-10-12T19:44:09.539Z,96.85
2022-10-12T19:46:37.856Z,96.66
2022-10-12T19:49:06.702Z,96.37
2022-10-12T19:51:35.036Z,97.14
2022-10-12T19:54:05.171Z,96.39
2022-10-12T19:56:34.626Z,96.53
2022-10-12T19:59:03.034Z,96.39
2022-10-12T20:01:36.791Z,96.07
2022-10-12T20:04:09.898Z,95.50
2022-10-12T20:06:44.018Z,96.82
2022-10-12T20:09:12.352Z,97.02
2022-10-12T20:11:40.931Z,97.67
2022-10-12T20:14:09.565Z,96.69
2022-10-12T20:16:39.205Z,97.26
2022-10-12T20:19:08.077Z,96.75
2022-10-12T20:21:37.477Z,97.26
2022-10-12T20:24:09.711Z,96.72
2022-10-12T20:26:37.932Z,97.47
2022-10-12T20:29:06.249Z,96.52
2022-10-12T20:31:34.519Z,96.10
2022-10-12T20:34:04.266Z,96.71
2022-10-12T20:36:32.892Z,96.81
2022-10-12T20:39:01.775Z,97.03
2022-10-12T20:41:30.041Z,97.58
2022-10-12T20:44:00.298Z,98.25
2022-10-12T20:46:30.078Z,97.88
2022-10-12T20:49:01.122Z,98.89
2022-10-12T20:51:34.004Z,99.96
2022-10-12T20:54:04.125Z,99.81
2022-10-12T20:56:34.207Z,100.00
2022-10-12T20:59:03.117Z,100.00
2022-10-12T21:01:31.386Z,100.00
2022-10-12T21:03:59.719Z,100.00
2022-10-12T21:06:28.798Z,100.00
2022-10-12T21:08:59.211Z,100.00
2022-10-12T21:11:27.594Z,100.00
2022-10-12T21:13:56.955Z,100.00
2022-10-12T21:16:27.043Z,100.00
2022-10-12T21:18:56.312Z,100.00
2022-10-12T21:21:25.063Z,99.72
2022-10-12T21:23:55.732Z,97.92
2022-10-12T21:26:27.668Z,97.96
2022-10-12T21:28:56.387Z,97.66
2022-10-12T21:31:29.517Z,99.15
2022-10-12T21:34:01.129Z,99.63
2022-10-12T21:36:30.808Z,100.00
2022-10-12T21:38:59.400Z,99.81
2022-10-12T21:41:31.194Z,100.00
2022-10-12T21:43:59.769Z,100.00
2022-10-12T21:46:30.484Z,100.00
2022-10-12T21:49:00.636Z,99.74
2022-10-12T21:51:31.048Z,99.17
2022-10-12T21:53:59.488Z,99.16
2022-10-12T21:56:32.158Z,99.18
2022-10-12T21:59:02.610Z,99.01
2022-10-12T22:01:34.713Z,98.75
2022-10-12T22:04:11.011Z,98.53
2022-10-12T22:06:39.320Z,98.43
2022-10-12T22:09:10.704Z,98.33
2022-10-12T22:11:40.447Z,98.39
2022-10-12T22:14:15.946Z,97.89
2022-10-12T22:16:44.897Z,98.45
2022-10-12T22:19:18.817Z,97.76
2022-10-12T22:21:48.460Z,97.92
2022-10-12T22:24:17.206Z,98.54
2022-10-12T22:26:46.909Z,100.00
2022-10-12T22:29:15.239Z,100.00
2022-10-12T22:31:44.441Z,100.00
2022-10-12T22:34:13.111Z,100.00
2022-10-12T22:36:41.404Z,100.00
2022-10-12T22:39:09.791Z,100.00
2022-10-12T22:41:37.998Z,100.00
2022-10-12T22:44:07.735Z,98.37
2022-10-12T22:46:36.410Z,98.20
2022-10-12T22:49:04.916Z,98.66
2022-10-12T22:51:35.405Z,98.07
2022-10-12T22:54:04.512Z,98.42
2022-10-12T22:56:32.908Z,99.30
2022-10-12T22:59:06.594Z,100.00
2022-10-12T23:01:36.877Z,100.00
2022-10-12T23:04:05.640Z,100.00
2022-10-12T23:06:34.093Z,100.00
2022-10-12T23:09:02.752Z,100.00
2022-10-12T23:11:31.647Z,100.00
2022-10-12T23:13:59.944Z,100.00
2022-10-12T23:16:31.382Z,100.00
2022-10-12T23:19:03.045Z,100.00
2022-10-12T23:21:33.761Z,99.05
2022-10-12T23:24:04.975Z,98.23
2022-10-12T23:26:33.833Z,97.74
2022-10-12T23:29:02.093Z,97.65
2022-10-12T23:31:31.602Z,97.80
2022-10-12T23:34:06.811Z,98.50
2022-10-12T23:36:35.757Z,98.90
2022-10-12T23:39:05.980Z,99.52
2022-10-12T23:41:34.708Z,99.37
2022-10-12T23:44:03.114Z,99.76
2022-10-12T23:46:31.515Z,100.00
2022-10-12T23:49:00.119Z,100.00
2022-10-12T23:51:29.733Z,100.00
2022-10-12T23:53:58.046Z,100.00
2022-10-12T23:56:26.359Z,100.00
2022-10-12T23:58:54.787Z,100.00
